SAS561 LOWW-ESSA
Flight info
| Callsign | SAS561 |
|---|---|
| Flight time | 1h 46m |
| Altitude | 40000 |
| Route | LANUX2C/29 LANUX DCT VLM DCT TOMTI/N0489F410 DCT RUMAR DCT ARMOD Z228 NILUG |
| Aircraft | A359/H-SDE2E3GHIJ3J4J5LM1ORWXY/LB1D1 |
Departure
| Time | 2026-04-25 18:45 |
|---|---|
| Airport | Vienna International Airport (LOWW) |
Arrival
| Time | 2026-04-25 20:31 |
|---|---|
| Airport | Stockholm-Arlanda Airport (ESSA) |
| Time | Latitude | Longitude | Altitude | Speed | Heading |
|---|---|---|---|---|---|
| 2026-04-25 18:18 | 48.11917 | 16.55626 | 629 ft | 0 kts | 25° |
| 2026-04-25 18:34 | 48.11905 | 16.55617 | 627 ft | 4 kts | 31° |
| 2026-04-25 18:34 | 48.11883 | 16.55593 | 625 ft | 4 kts | 49° |
| 2026-04-25 18:34 | 48.11870 | 16.55560 | 630 ft | 4 kts | 78° |
| 2026-04-25 18:34 | 48.11870 | 16.55527 | 630 ft | 1 kts | 115° |
| 2026-04-25 18:39 | 48.11864 | 16.55543 | 632 ft | 7 kts | 120° |
| 2026-04-25 18:39 | 48.11819 | 16.55581 | 623 ft | 8 kts | 177° |
| 2026-04-25 18:39 | 48.11761 | 16.55610 | 621 ft | 10 kts | 139° |
| 2026-04-25 18:39 | 48.11692 | 16.55791 | 622 ft | 25 kts | 114° |
| 2026-04-25 18:40 | 48.11611 | 16.56031 | 624 ft | 27 kts | 116° |
| 2026-04-25 18:40 | 48.11528 | 16.56286 | 630 ft | 28 kts | 116° |
| 2026-04-25 18:40 | 48.11441 | 16.56558 | 630 ft | 30 kts | 115° |
| 2026-04-25 18:40 | 48.11362 | 16.56804 | 625 ft | 12 kts | 116° |
| 2026-04-25 18:41 | 48.11323 | 16.56924 | 627 ft | 14 kts | 116° |
| 2026-04-25 18:41 | 48.11276 | 16.57067 | 626 ft | 16 kts | 116° |
| 2026-04-25 18:41 | 48.11254 | 16.57133 | 630 ft | 8 kts | 116° |
| 2026-04-25 18:41 | 48.11220 | 16.57239 | 626 ft | 13 kts | 116° |
| 2026-04-25 18:42 | 48.11176 | 16.57373 | 630 ft | 16 kts | 116° |
| 2026-04-25 18:42 | 48.11159 | 16.57424 | 629 ft | 17 kts | 116° |
| 2026-04-25 18:42 | 48.11115 | 16.57517 | 630 ft | 8 kts | 149° |
| 2026-04-25 18:42 | 48.11061 | 16.57509 | 623 ft | 14 kts | 200° |
| 2026-04-25 18:43 | 48.11004 | 16.57470 | 626 ft | 4 kts | 207° |
| 2026-04-25 18:43 | 48.10962 | 16.57412 | 630 ft | 7 kts | 250° |
| 2026-04-25 18:43 | 48.10965 | 16.57392 | 626 ft | 0 kts | 294° |
| 2026-04-25 18:44 | 48.10966 | 16.57390 | 625 ft | 4 kts | 294° |
| 2026-04-25 18:44 | 48.11082 | 16.57028 | 629 ft | 76 kts | 295° |
| 2026-04-25 18:44 | 48.11410 | 16.56016 | 623 ft | 138 kts | 296° |
| 2026-04-25 18:44 | 48.11906 | 16.54512 | 809 ft | 176 kts | 295° |
| 2026-04-25 18:45 | 48.12465 | 16.52788 | 1370 ft | 186 kts | 293° |
| 2026-04-25 18:45 | 48.12673 | 16.50908 | 2159 ft | 191 kts | 270° |
| 2026-04-25 18:45 | 48.12294 | 16.48972 | 2742 ft | 197 kts | 252° |
| 2026-04-25 18:45 | 48.11882 | 16.46988 | 3122 ft | 203 kts | 265° |
| 2026-04-25 18:46 | 48.11894 | 16.44806 | 3386 ft | 220 kts | 277° |
| 2026-04-25 18:46 | 48.12087 | 16.42410 | 3637 ft | 242 kts | 279° |
| 2026-04-25 18:46 | 48.12342 | 16.39868 | 4169 ft | 250 kts | 280° |
| 2026-04-25 18:46 | 48.12608 | 16.37299 | 4873 ft | 251 kts | 281° |
| 2026-04-25 18:47 | 48.12880 | 16.34691 | 5483 ft | 256 kts | 281° |
| 2026-04-25 18:47 | 48.13158 | 16.32041 | 6132 ft | 259 kts | 281° |
| 2026-04-25 18:47 | 48.13439 | 16.29362 | 6753 ft | 262 kts | 281° |
| 2026-04-25 18:47 | 48.13723 | 16.26645 | 7347 ft | 266 kts | 281° |
| 2026-04-25 18:48 | 48.14041 | 16.23924 | 8072 ft | 264 kts | 284° |
| 2026-04-25 18:48 | 48.14740 | 16.21402 | 8762 ft | 264 kts | 303° |
| 2026-04-25 18:48 | 48.16030 | 16.19438 | 9466 ft | 268 kts | 323° |
| 2026-04-25 18:48 | 48.17663 | 16.18065 | 10136 ft | 271 kts | 330° |
| 2026-04-25 18:49 | 48.19398 | 16.16797 | 10458 ft | 286 kts | 331° |
| 2026-04-25 18:49 | 48.21217 | 16.15482 | 10673 ft | 302 kts | 331° |
| 2026-04-25 18:49 | 48.23156 | 16.14071 | 10893 ft | 318 kts | 333° |
| 2026-04-25 18:49 | 48.25191 | 16.12589 | 11139 ft | 331 kts | 332° |
| 2026-04-25 18:50 | 48.27287 | 16.11050 | 11514 ft | 339 kts | 331° |
| 2026-04-25 18:50 | 48.29417 | 16.09477 | 11952 ft | 344 kts | 331° |
| 2026-04-25 18:50 | 48.31571 | 16.07880 | 12462 ft | 346 kts | 331° |
| 2026-04-25 18:50 | 48.33737 | 16.06272 | 13021 ft | 348 kts | 331° |
| 2026-04-25 18:51 | 48.35911 | 16.04655 | 13540 ft | 350 kts | 331° |
| 2026-04-25 18:51 | 48.37361 | 16.03574 | 13837 ft | 352 kts | 331° |
| 2026-04-25 18:51 | 48.40316 | 16.01371 | 14425 ft | 356 kts | 331° |
| 2026-04-25 18:51 | 48.42540 | 15.99712 | 14867 ft | 358 kts | 330° |
| 2026-04-25 18:52 | 48.44778 | 15.98039 | 15354 ft | 360 kts | 330° |
| 2026-04-25 18:52 | 48.47031 | 15.96353 | 15799 ft | 363 kts | 330° |
| 2026-04-25 18:52 | 48.49299 | 15.94656 | 16248 ft | 365 kts | 330° |
| 2026-04-25 18:52 | 48.51577 | 15.92948 | 16716 ft | 367 kts | 330° |
| 2026-04-25 18:53 | 48.53869 | 15.91227 | 17169 ft | 369 kts | 330° |
| 2026-04-25 18:53 | 48.56175 | 15.89495 | 17618 ft | 371 kts | 330° |
| 2026-04-25 18:53 | 48.58487 | 15.87724 | 18057 ft | 373 kts | 328° |
| 2026-04-25 18:53 | 48.60751 | 15.85793 | 18456 ft | 375 kts | 327° |
| 2026-04-25 18:54 | 48.65295 | 15.81833 | 19222 ft | 379 kts | 327° |
| 2026-04-25 18:54 | 48.67586 | 15.79853 | 19650 ft | 379 kts | 327° |
| 2026-04-25 18:54 | 48.69883 | 15.77874 | 20052 ft | 381 kts | 327° |
| 2026-04-25 18:55 | 48.72189 | 15.75890 | 20442 ft | 382 kts | 327° |
| 2026-04-25 18:55 | 48.74508 | 15.73895 | 20812 ft | 384 kts | 327° |
| 2026-04-25 18:55 | 48.76837 | 15.71891 | 21181 ft | 386 kts | 327° |
| 2026-04-25 18:55 | 48.79181 | 15.69873 | 21577 ft | 388 kts | 327° |
| 2026-04-25 18:56 | 48.81533 | 15.67847 | 21929 ft | 390 kts | 327° |
| 2026-04-25 18:56 | 48.83894 | 15.65810 | 22293 ft | 391 kts | 327° |
| 2026-04-25 18:56 | 48.86264 | 15.63764 | 22654 ft | 393 kts | 326° |
| 2026-04-25 18:56 | 48.88669 | 15.61758 | 23007 ft | 396 kts | 329° |
| 2026-04-25 18:57 | 48.91160 | 15.59931 | 23378 ft | 399 kts | 331° |
| 2026-04-25 18:57 | 48.93697 | 15.58195 | 23708 ft | 401 kts | 332° |
| 2026-04-25 18:57 | 48.96264 | 15.56503 | 23987 ft | 403 kts | 333° |
| 2026-04-25 18:57 | 48.97975 | 15.55388 | 24164 ft | 405 kts | 333° |
| 2026-04-25 18:58 | 49.01454 | 15.53122 | 24480 ft | 409 kts | 333° |
| 2026-04-25 18:58 | 49.06695 | 15.49677 | 25063 ft | 412 kts | 333° |
| 2026-04-25 18:58 | 49.09325 | 15.47934 | 25361 ft | 413 kts | 333° |
| 2026-04-25 18:59 | 49.14614 | 15.44406 | 25956 ft | 417 kts | 333° |
| 2026-04-25 18:59 | 49.19940 | 15.40840 | 26643 ft | 419 kts | 333° |
| 2026-04-25 19:00 | 49.25308 | 15.37240 | 27329 ft | 423 kts | 333° |
| 2026-04-25 19:00 | 49.28007 | 15.35427 | 27683 ft | 425 kts | 333° |
| 2026-04-25 19:01 | 49.33447 | 15.31765 | 28408 ft | 429 kts | 333° |
| 2026-04-25 19:01 | 49.36189 | 15.29915 | 28753 ft | 431 kts | 334° |
| 2026-04-25 19:01 | 49.38939 | 15.28059 | 29181 ft | 433 kts | 334° |
| 2026-04-25 19:01 | 49.41702 | 15.26192 | 29600 ft | 434 kts | 333° |
| 2026-04-25 19:02 | 49.47244 | 15.22441 | 30429 ft | 437 kts | 333° |
| 2026-04-25 19:02 | 49.49995 | 15.20574 | 30734 ft | 439 kts | 333° |
| 2026-04-25 19:02 | 49.52835 | 15.18644 | 31070 ft | 441 kts | 333° |
| 2026-04-25 19:03 | 49.56566 | 15.16106 | 31496 ft | 444 kts | 333° |
| 2026-04-25 19:03 | 49.61274 | 15.12897 | 31999 ft | 447 kts | 333° |
| 2026-04-25 19:03 | 49.64128 | 15.10950 | 32291 ft | 449 kts | 333° |
| 2026-04-25 19:04 | 49.70119 | 15.08067 | 33078 ft | 454 kts | 346° |
| 2026-04-25 19:04 | 49.73267 | 15.07560 | 33514 ft | 458 kts | 353° |
| 2026-04-25 19:05 | 49.79661 | 15.08144 | 34260 ft | 461 kts | 0° |
| 2026-04-25 19:05 | 49.86030 | 15.09280 | 34932 ft | 460 kts | 1° |
| 2026-04-25 19:05 | 49.89215 | 15.09888 | 35270 ft | 460 kts | 1° |
| 2026-04-25 19:06 | 49.92387 | 15.10490 | 35630 ft | 459 kts | 1° |
| 2026-04-25 19:06 | 49.98720 | 15.11658 | 36272 ft | 458 kts | 1° |
| 2026-04-25 19:06 | 50.01881 | 15.12228 | 36568 ft | 458 kts | 0° |
| 2026-04-25 19:07 | 50.08209 | 15.13363 | 37184 ft | 457 kts | 0° |
| 2026-04-25 19:07 | 50.11368 | 15.13928 | 37476 ft | 457 kts | 0° |
| 2026-04-25 19:08 | 50.17681 | 15.15062 | 38052 ft | 456 kts | 0° |
| 2026-04-25 19:08 | 50.20831 | 15.15629 | 38326 ft | 456 kts | 0° |
| 2026-04-25 19:09 | 50.30276 | 15.17337 | 38994 ft | 456 kts | 0° |
| 2026-04-25 19:09 | 50.32365 | 15.17715 | 39118 ft | 456 kts | 0° |
| 2026-04-25 19:09 | 50.39734 | 15.19053 | 39525 ft | 456 kts | 1° |
| 2026-04-25 19:10 | 50.42892 | 15.19628 | 39675 ft | 457 kts | 1° |
| 2026-04-25 19:10 | 50.46052 | 15.20204 | 39840 ft | 457 kts | 1° |
| 2026-04-25 19:10 | 50.49214 | 15.20781 | 39965 ft | 458 kts | 1° |
| 2026-04-25 19:11 | 50.55591 | 15.21943 | 39987 ft | 465 kts | 1° |
| 2026-04-25 19:11 | 50.62065 | 15.23127 | 39987 ft | 471 kts | 1° |
| 2026-04-25 19:12 | 50.68592 | 15.24331 | 39988 ft | 473 kts | 1° |
| 2026-04-25 19:12 | 50.75082 | 15.25532 | 39986 ft | 473 kts | 1° |
| 2026-04-25 19:13 | 50.81622 | 15.26742 | 39994 ft | 473 kts | 1° |
| 2026-04-25 19:13 | 50.88164 | 15.27954 | 39979 ft | 474 kts | 1° |
| 2026-04-25 19:14 | 50.94711 | 15.29173 | 39976 ft | 473 kts | 1° |
| 2026-04-25 19:14 | 51.01257 | 15.30355 | 39974 ft | 473 kts | 1° |
| 2026-04-25 19:15 | 51.07800 | 15.31479 | 39970 ft | 472 kts | 0° |
| 2026-04-25 19:15 | 51.14307 | 15.32603 | 39971 ft | 469 kts | 0° |
| 2026-04-25 19:16 | 51.20789 | 15.33731 | 39966 ft | 469 kts | 0° |
| 2026-04-25 19:16 | 51.27287 | 15.34868 | 40011 ft | 470 kts | 0° |
| 2026-04-25 19:17 | 51.33770 | 15.36012 | 40113 ft | 467 kts | 0° |
| 2026-04-25 19:17 | 51.36978 | 15.36583 | 40485 ft | 460 kts | 0° |
| 2026-04-25 19:17 | 51.40138 | 15.37147 | 40832 ft | 455 kts | 0° |
| 2026-04-25 19:17 | 51.43281 | 15.37704 | 40947 ft | 454 kts | 0° |
| 2026-04-25 19:18 | 51.46424 | 15.38258 | 40951 ft | 454 kts | 0° |
| 2026-04-25 19:18 | 51.52704 | 15.39367 | 40967 ft | 455 kts | 0° |
| 2026-04-25 19:19 | 51.58991 | 15.40480 | 40953 ft | 454 kts | 0° |
| 2026-04-25 19:19 | 51.65277 | 15.41597 | 40947 ft | 455 kts | 0° |
| 2026-04-25 19:20 | 51.71570 | 15.42722 | 40940 ft | 455 kts | 0° |
| 2026-04-25 19:20 | 51.77856 | 15.43853 | 40949 ft | 455 kts | 360° |
| 2026-04-25 19:21 | 51.84165 | 15.44992 | 40941 ft | 456 kts | 360° |
| 2026-04-25 19:21 | 51.93630 | 15.46706 | 40940 ft | 456 kts | 360° |
| 2026-04-25 19:22 | 51.99940 | 15.47851 | 40966 ft | 457 kts | 359° |
| 2026-04-25 19:23 | 52.09414 | 15.49573 | 40900 ft | 457 kts | 359° |
| 2026-04-25 19:23 | 52.18894 | 15.51305 | 40901 ft | 457 kts | 359° |
| 2026-04-25 19:24 | 52.25214 | 15.52464 | 40913 ft | 457 kts | 359° |
| 2026-04-25 19:25 | 52.37853 | 15.54786 | 40913 ft | 457 kts | 359° |
| 2026-04-25 19:25 | 52.44162 | 15.55957 | 40927 ft | 456 kts | 359° |
| 2026-04-25 19:26 | 52.49405 | 15.56932 | 40931 ft | 456 kts | 359° |
| 2026-04-25 19:26 | 52.55708 | 15.58104 | 40928 ft | 456 kts | 359° |
| 2026-04-25 19:27 | 52.60947 | 15.59080 | 40928 ft | 456 kts | 359° |
| 2026-04-25 19:27 | 52.69335 | 15.60649 | 40931 ft | 456 kts | 359° |
| 2026-04-25 19:28 | 52.74622 | 15.61641 | 40930 ft | 456 kts | 359° |
| 2026-04-25 19:28 | 52.80937 | 15.62829 | 40928 ft | 457 kts | 359° |
| 2026-04-25 19:29 | 52.87257 | 15.64022 | 40920 ft | 457 kts | 359° |
| 2026-04-25 19:29 | 52.93530 | 15.65209 | 40916 ft | 457 kts | 359° |
| 2026-04-25 19:30 | 52.99843 | 15.66407 | 40924 ft | 457 kts | 359° |
| 2026-04-25 19:30 | 53.06166 | 15.67610 | 40913 ft | 457 kts | 360° |
| 2026-04-25 19:31 | 53.12488 | 15.68818 | 40911 ft | 457 kts | 360° |
| 2026-04-25 19:31 | 53.18811 | 15.70029 | 40915 ft | 457 kts | 360° |
| 2026-04-25 19:32 | 53.25133 | 15.71241 | 40910 ft | 457 kts | 0° |
| 2026-04-25 19:32 | 53.30379 | 15.72252 | 40911 ft | 456 kts | 0° |
| 2026-04-25 19:33 | 53.37751 | 15.73677 | 40909 ft | 456 kts | 0° |
| 2026-04-25 19:33 | 53.44062 | 15.74899 | 40902 ft | 456 kts | 0° |
| 2026-04-25 19:34 | 53.50369 | 15.76124 | 40899 ft | 456 kts | 0° |
| 2026-04-25 19:34 | 53.56675 | 15.77354 | 40894 ft | 456 kts | 0° |
| 2026-04-25 19:35 | 53.62984 | 15.78588 | 40881 ft | 456 kts | 0° |
| 2026-04-25 19:35 | 53.69285 | 15.79824 | 40877 ft | 456 kts | 0° |
| 2026-04-25 19:36 | 53.75590 | 15.81063 | 40878 ft | 456 kts | 0° |
| 2026-04-25 19:36 | 53.81877 | 15.82305 | 40871 ft | 454 kts | 0° |
| 2026-04-25 19:37 | 53.88157 | 15.83548 | 40871 ft | 454 kts | 0° |
| 2026-04-25 19:37 | 53.94431 | 15.84792 | 40862 ft | 454 kts | 0° |
| 2026-04-25 19:38 | 54.00716 | 15.86042 | 40862 ft | 455 kts | 1° |
| 2026-04-25 19:38 | 54.07009 | 15.87298 | 40852 ft | 456 kts | 1° |
| 2026-04-25 19:39 | 54.13308 | 15.88560 | 40842 ft | 456 kts | 1° |
| 2026-04-25 19:39 | 54.19607 | 15.89826 | 40837 ft | 456 kts | 1° |
| 2026-04-25 19:40 | 54.25909 | 15.91094 | 40831 ft | 457 kts | 1° |
| 2026-04-25 19:40 | 54.32233 | 15.92372 | 40824 ft | 458 kts | 1° |
| 2026-04-25 19:41 | 54.38566 | 15.93658 | 40823 ft | 458 kts | 1° |
| 2026-04-25 19:41 | 54.43829 | 15.94730 | 40815 ft | 458 kts | 1° |
| 2026-04-25 19:42 | 54.51238 | 15.96240 | 40814 ft | 460 kts | 1° |
| 2026-04-25 19:42 | 54.57602 | 15.97543 | 40808 ft | 461 kts | 2° |
| 2026-04-25 19:43 | 54.63977 | 15.98853 | 40801 ft | 461 kts | 2° |
| 2026-04-25 19:43 | 54.70350 | 16.00167 | 40801 ft | 461 kts | 2° |
| 2026-04-25 19:44 | 54.76723 | 16.01483 | 40798 ft | 462 kts | 2° |
| 2026-04-25 19:44 | 54.83102 | 16.02803 | 40798 ft | 462 kts | 2° |
| 2026-04-25 19:45 | 54.89446 | 16.04122 | 40799 ft | 462 kts | 2° |
| 2026-04-25 19:45 | 54.95870 | 16.05462 | 40796 ft | 462 kts | 2° |
| 2026-04-25 19:46 | 55.02208 | 16.06860 | 40793 ft | 464 kts | 5° |
| 2026-04-25 19:46 | 55.08526 | 16.09445 | 40793 ft | 467 kts | 8° |
| 2026-04-25 19:47 | 55.14832 | 16.12160 | 40796 ft | 467 kts | 8° |
| 2026-04-25 19:47 | 55.21132 | 16.14894 | 40796 ft | 467 kts | 8° |
| 2026-04-25 19:48 | 55.27437 | 16.17645 | 40791 ft | 467 kts | 9° |
| 2026-04-25 19:48 | 55.33742 | 16.20409 | 40798 ft | 467 kts | 9° |
| 2026-04-25 19:49 | 55.37962 | 16.22263 | 40791 ft | 467 kts | 9° |
| 2026-04-25 19:49 | 55.46351 | 16.25960 | 40785 ft | 467 kts | 9° |
| 2026-04-25 19:50 | 55.55809 | 16.30143 | 40787 ft | 468 kts | 9° |
| 2026-04-25 19:51 | 55.62128 | 16.32950 | 40784 ft | 468 kts | 9° |
| 2026-04-25 19:51 | 55.68450 | 16.35769 | 40787 ft | 468 kts | 9° |
| 2026-04-25 19:52 | 55.74768 | 16.38596 | 40822 ft | 468 kts | 9° |
| 2026-04-25 19:52 | 55.81100 | 16.41440 | 40796 ft | 470 kts | 9° |
| 2026-04-25 19:53 | 55.87448 | 16.44302 | 40798 ft | 471 kts | 9° |
| 2026-04-25 19:53 | 55.93803 | 16.47175 | 40799 ft | 471 kts | 9° |
| 2026-04-25 19:54 | 56.00154 | 16.50056 | 40799 ft | 471 kts | 9° |
| 2026-04-25 19:54 | 56.06521 | 16.52951 | 40800 ft | 473 kts | 10° |
| 2026-04-25 19:55 | 56.12903 | 16.55866 | 40799 ft | 474 kts | 10° |
| 2026-04-25 19:55 | 56.19285 | 16.58791 | 40802 ft | 474 kts | 10° |
| 2026-04-25 19:56 | 56.25671 | 16.61727 | 40799 ft | 474 kts | 10° |
| 2026-04-25 19:56 | 56.32063 | 16.64675 | 40801 ft | 475 kts | 10° |
| 2026-04-25 19:57 | 56.38460 | 16.67637 | 40805 ft | 475 kts | 10° |
| 2026-04-25 19:57 | 56.44861 | 16.70611 | 40802 ft | 475 kts | 10° |
| 2026-04-25 19:58 | 56.51218 | 16.73575 | 40806 ft | 475 kts | 10° |
| 2026-04-25 19:58 | 56.57621 | 16.76569 | 40804 ft | 476 kts | 11° |
| 2026-04-25 19:59 | 56.64037 | 16.79581 | 40806 ft | 476 kts | 11° |
| 2026-04-25 19:59 | 56.70453 | 16.82604 | 40806 ft | 476 kts | 11° |
| 2026-04-25 20:00 | 56.76670 | 16.85548 | 40815 ft | 476 kts | 10° |
| 2026-04-25 20:00 | 56.83088 | 16.88523 | 40901 ft | 476 kts | 10° |
| 2026-04-25 20:01 | 56.92712 | 16.93102 | 40812 ft | 475 kts | 10° |
| 2026-04-25 20:01 | 56.99122 | 16.96173 | 40811 ft | 476 kts | 10° |
| 2026-04-25 20:02 | 57.05533 | 16.99253 | 40835 ft | 477 kts | 11° |
| 2026-04-25 20:02 | 57.11913 | 17.02329 | 40812 ft | 478 kts | 11° |
| 2026-04-25 20:03 | 57.18347 | 17.05441 | 40818 ft | 478 kts | 11° |
| 2026-04-25 20:03 | 57.24776 | 17.08563 | 40817 ft | 478 kts | 11° |
| 2026-04-25 20:04 | 57.31203 | 17.11694 | 40845 ft | 478 kts | 11° |
| 2026-04-25 20:04 | 57.37642 | 17.14842 | 40814 ft | 479 kts | 11° |
| 2026-04-25 20:05 | 57.44095 | 17.18010 | 40817 ft | 480 kts | 11° |
| 2026-04-25 20:05 | 57.50552 | 17.21190 | 40815 ft | 480 kts | 11° |
| 2026-04-25 20:06 | 57.57006 | 17.24381 | 40810 ft | 480 kts | 11° |
| 2026-04-25 20:06 | 57.63448 | 17.27579 | 40558 ft | 475 kts | 11° |
| 2026-04-25 20:07 | 57.66632 | 17.29164 | 39981 ft | 473 kts | 11° |
| 2026-04-25 20:07 | 57.69818 | 17.30753 | 39371 ft | 473 kts | 11° |
| 2026-04-25 20:07 | 57.73004 | 17.32341 | 38624 ft | 476 kts | 11° |
| 2026-04-25 20:07 | 57.76221 | 17.33947 | 37629 ft | 481 kts | 11° |
| 2026-04-25 20:08 | 57.79456 | 17.35569 | 36879 ft | 480 kts | 11° |
| 2026-04-25 20:08 | 57.82671 | 17.37186 | 36320 ft | 476 kts | 11° |
| 2026-04-25 20:08 | 57.85854 | 17.38790 | 35825 ft | 471 kts | 11° |
| 2026-04-25 20:08 | 57.89003 | 17.40378 | 35317 ft | 466 kts | 11° |
| 2026-04-25 20:09 | 57.92111 | 17.41949 | 34871 ft | 461 kts | 11° |
| 2026-04-25 20:09 | 57.95191 | 17.43508 | 34408 ft | 455 kts | 11° |
| 2026-04-25 20:09 | 57.98233 | 17.45050 | 33968 ft | 450 kts | 10° |
| 2026-04-25 20:09 | 58.01238 | 17.46576 | 33470 ft | 445 kts | 10° |
| 2026-04-25 20:10 | 58.02210 | 17.47070 | 33310 ft | 444 kts | 10° |
| 2026-04-25 20:10 | 58.07158 | 17.49589 | 32467 ft | 435 kts | 10° |
| 2026-04-25 20:10 | 58.10061 | 17.51070 | 31982 ft | 430 kts | 10° |
| 2026-04-25 20:10 | 58.12937 | 17.52540 | 31522 ft | 426 kts | 10° |
| 2026-04-25 20:11 | 58.15787 | 17.53999 | 31038 ft | 422 kts | 10° |
| 2026-04-25 20:11 | 58.18600 | 17.55442 | 30585 ft | 417 kts | 10° |
| 2026-04-25 20:11 | 58.20446 | 17.56390 | 30298 ft | 414 kts | 10° |
| 2026-04-25 20:11 | 58.24158 | 17.58006 | 29666 ft | 404 kts | 4° |
| 2026-04-25 20:12 | 58.25991 | 17.58524 | 29268 ft | 401 kts | 3° |
| 2026-04-25 20:12 | 58.28746 | 17.59183 | 28669 ft | 397 kts | 2° |
| 2026-04-25 20:12 | 58.31480 | 17.59760 | 28105 ft | 393 kts | 2° |
| 2026-04-25 20:12 | 58.33269 | 17.60120 | 27894 ft | 387 kts | 1° |
| 2026-04-25 20:13 | 58.36812 | 17.60831 | 27273 ft | 380 kts | 1° |
| 2026-04-25 20:13 | 58.39429 | 17.61361 | 26737 ft | 378 kts | 2° |
| 2026-04-25 20:13 | 58.42038 | 17.61899 | 26151 ft | 376 kts | 2° |
| 2026-04-25 20:13 | 58.44625 | 17.62444 | 25655 ft | 373 kts | 2° |
| 2026-04-25 20:14 | 58.47200 | 17.62994 | 25145 ft | 370 kts | 2° |
| 2026-04-25 20:14 | 58.49746 | 17.63542 | 24675 ft | 367 kts | 2° |
| 2026-04-25 20:14 | 58.52272 | 17.64088 | 24187 ft | 364 kts | 2° |
| 2026-04-25 20:14 | 58.54781 | 17.64632 | 23704 ft | 362 kts | 2° |
| 2026-04-25 20:15 | 58.57277 | 17.65173 | 23189 ft | 360 kts | 2° |
| 2026-04-25 20:15 | 58.59751 | 17.65710 | 22642 ft | 356 kts | 2° |
| 2026-04-25 20:15 | 58.62197 | 17.66242 | 22127 ft | 352 kts | 2° |
| 2026-04-25 20:15 | 58.64616 | 17.66769 | 21599 ft | 348 kts | 2° |
| 2026-04-25 20:16 | 58.67011 | 17.67290 | 21096 ft | 345 kts | 2° |
| 2026-04-25 20:16 | 58.69384 | 17.67806 | 20580 ft | 342 kts | 2° |
| 2026-04-25 20:16 | 58.71736 | 17.68318 | 20066 ft | 338 kts | 2° |
| 2026-04-25 20:16 | 58.74062 | 17.68826 | 19580 ft | 335 kts | 2° |
| 2026-04-25 20:17 | 58.76370 | 17.69331 | 19088 ft | 332 kts | 2° |
| 2026-04-25 20:17 | 58.78650 | 17.69831 | 18603 ft | 329 kts | 2° |
| 2026-04-25 20:17 | 58.80913 | 17.70327 | 18135 ft | 326 kts | 2° |
| 2026-04-25 20:17 | 58.83155 | 17.70819 | 17594 ft | 323 kts | 2° |
| 2026-04-25 20:18 | 58.85375 | 17.71308 | 17010 ft | 320 kts | 2° |
| 2026-04-25 20:18 | 58.87580 | 17.71795 | 16491 ft | 317 kts | 2° |
| 2026-04-25 20:18 | 58.89766 | 17.72278 | 15959 ft | 315 kts | 2° |
| 2026-04-25 20:18 | 58.91931 | 17.72757 | 15431 ft | 312 kts | 2° |
| 2026-04-25 20:19 | 58.94083 | 17.73233 | 14906 ft | 310 kts | 2° |
| 2026-04-25 20:19 | 58.96188 | 17.73699 | 14424 ft | 307 kts | 2° |
| 2026-04-25 20:19 | 58.98301 | 17.74167 | 13946 ft | 304 kts | 2° |
| 2026-04-25 20:19 | 59.00420 | 17.74638 | 13442 ft | 301 kts | 2° |
| 2026-04-25 20:20 | 59.02494 | 17.75096 | 12890 ft | 299 kts | 2° |
| 2026-04-25 20:20 | 59.04548 | 17.75551 | 12367 ft | 295 kts | 2° |
| 2026-04-25 20:20 | 59.06576 | 17.76002 | 11926 ft | 290 kts | 2° |
| 2026-04-25 20:20 | 59.08576 | 17.76447 | 11347 ft | 289 kts | 2° |
| 2026-04-25 20:21 | 59.10566 | 17.76890 | 10832 ft | 287 kts | 2° |
| 2026-04-25 20:21 | 59.12546 | 17.77331 | 10325 ft | 285 kts | 3° |
| 2026-04-25 20:21 | 59.14503 | 17.77768 | 9814 ft | 282 kts | 3° |
| 2026-04-25 20:21 | 59.16444 | 17.78203 | 9271 ft | 279 kts | 3° |
| 2026-04-25 20:22 | 59.18363 | 17.78634 | 8711 ft | 276 kts | 3° |
| 2026-04-25 20:22 | 59.19623 | 17.78919 | 8336 ft | 275 kts | 3° |
| 2026-04-25 20:22 | 59.22152 | 17.79489 | 7603 ft | 272 kts | 3° |
| 2026-04-25 20:22 | 59.23996 | 17.79904 | 7074 ft | 269 kts | 3° |
| 2026-04-25 20:23 | 59.25850 | 17.80321 | 6564 ft | 267 kts | 4° |
| 2026-04-25 20:23 | 59.27689 | 17.80736 | 6030 ft | 264 kts | 4° |
| 2026-04-25 20:23 | 59.29510 | 17.81146 | 5473 ft | 263 kts | 4° |
| 2026-04-25 20:23 | 59.31318 | 17.81572 | 4899 ft | 261 kts | 4° |
| 2026-04-25 20:24 | 59.33122 | 17.82022 | 4356 ft | 260 kts | 5° |
| 2026-04-25 20:24 | 59.34881 | 17.82473 | 4097 ft | 249 kts | 5° |
| 2026-04-25 20:24 | 59.36554 | 17.82906 | 3898 ft | 237 kts | 5° |
| 2026-04-25 20:24 | 59.38158 | 17.83322 | 3583 ft | 230 kts | 5° |
| 2026-04-25 20:25 | 59.39724 | 17.83728 | 3311 ft | 222 kts | 5° |
| 2026-04-25 20:25 | 59.41220 | 17.83704 | 3151 ft | 210 kts | 353° |
| 2026-04-25 20:25 | 59.42640 | 17.83787 | 2988 ft | 199 kts | 6° |
| 2026-04-25 20:25 | 59.43958 | 17.84286 | 2857 ft | 185 kts | 7° |
| 2026-04-25 20:26 | 59.45174 | 17.84719 | 2726 ft | 171 kts | 6° |
| 2026-04-25 20:26 | 59.46306 | 17.85109 | 2574 ft | 160 kts | 6° |
| 2026-04-25 20:26 | 59.47376 | 17.85463 | 2494 ft | 154 kts | 6° |
| 2026-04-25 20:26 | 59.48436 | 17.85814 | 2485 ft | 154 kts | 6° |
| 2026-04-25 20:27 | 59.49496 | 17.86178 | 2483 ft | 154 kts | 6° |
| 2026-04-25 20:27 | 59.50553 | 17.86557 | 2489 ft | 155 kts | 7° |
| 2026-04-25 20:27 | 59.51612 | 17.86943 | 2488 ft | 155 kts | 7° |
| 2026-04-25 20:27 | 59.52673 | 17.87330 | 2473 ft | 156 kts | 7° |
| 2026-04-25 20:28 | 59.53735 | 17.87723 | 2297 ft | 155 kts | 6° |
| 2026-04-25 20:28 | 59.54785 | 17.88103 | 2081 ft | 151 kts | 6° |
| 2026-04-25 20:28 | 59.55801 | 17.88468 | 1861 ft | 146 kts | 6° |
| 2026-04-25 20:28 | 59.56767 | 17.88816 | 1668 ft | 137 kts | 5° |
| 2026-04-25 20:29 | 59.57693 | 17.89146 | 1476 ft | 135 kts | 4° |
| 2026-04-25 20:29 | 59.58637 | 17.89486 | 1279 ft | 140 kts | 6° |
| 2026-04-25 20:29 | 59.59604 | 17.89840 | 1065 ft | 143 kts | 7° |
| 2026-04-25 20:29 | 59.60596 | 17.90198 | 842 ft | 147 kts | 7° |
| 2026-04-25 20:30 | 59.61570 | 17.90551 | 646 ft | 138 kts | 7° |
| 2026-04-25 20:30 | 59.62490 | 17.90881 | 437 ft | 133 kts | 6° |
| 2026-04-25 20:30 | 59.63412 | 17.91207 | 232 ft | 135 kts | 7° |
| 2026-04-25 20:30 | 59.64325 | 17.91533 | 113 ft | 129 kts | 9° |
| 2026-04-25 20:31 | 59.64993 | 17.91779 | 111 ft | 49 kts | 12° |
| 2026-04-25 20:31 | 59.65083 | 17.91825 | 110 ft | 15 kts | 18° |
| 2026-04-25 20:31 | 59.65197 | 17.91938 | 108 ft | 19 kts | 33° |
| 2026-04-25 20:31 | 59.65284 | 17.92080 | 108 ft | 0 kts | 42° |
| 2026-04-25 20:32 | 59.65285 | 17.92082 | 108 ft | 3 kts | 41° |
| 2026-04-25 20:33 | 59.65341 | 17.92180 | 107 ft | 13 kts | 42° |
| 2026-04-25 20:33 | 59.65415 | 17.92319 | 108 ft | 16 kts | 43° |
| 2026-04-25 20:33 | 59.65487 | 17.92457 | 109 ft | 14 kts | 46° |
| 2026-04-25 20:33 | 59.65524 | 17.92567 | 111 ft | 15 kts | 62° |
| 2026-04-25 20:34 | 59.65559 | 17.92856 | 115 ft | 17 kts | 77° |
| 2026-04-25 20:34 | 59.65580 | 17.93067 | 113 ft | 10 kts | 102° |
| 2026-04-25 20:34 | 59.65533 | 17.93161 | 115 ft | 10 kts | 152° |
| 2026-04-25 20:34 | 59.65462 | 17.93200 | 114 ft | 7 kts | 167° |
| 2026-04-25 20:35 | 59.65411 | 17.93175 | 116 ft | 3 kts | 207° |
| 2026-04-25 20:35 | 59.65388 | 17.93143 | 113 ft | 4 kts | 216° |